sensor_id;sensor_type;location;lat;lon;timestamp;P1;durP1;ratioP1;P2;durP2;ratioP2
79640;SDS011;69115;49.904;14.390;2023-12-20T00:00:53;9.75;;;4.57;;
79640;SDS011;69115;49.904;14.390;2023-12-20T00:03:18;8.07;;;4.60;;
79640;SDS011;69115;49.904;14.390;2023-12-20T00:05:44;7.85;;;3.92;;
79640;SDS011;69115;49.904;14.390;2023-12-20T00:08:09;5.88;;;3.67;;
79640;SDS011;69115;49.904;14.390;2023-12-20T00:10:35;6.68;;;4.20;;
79640;SDS011;69115;49.904;14.390;2023-12-20T00:13:00;7.50;;;4.30;;
79640;SDS011;69115;49.904;14.390;2023-12-20T00:15:26;7.93;;;4.60;;
79640;SDS011;69115;49.904;14.390;2023-12-20T00:17:51;6.85;;;3.97;;
79640;SDS011;69115;49.904;14.390;2023-12-20T00:20:16;6.50;;;4.03;;
79640;SDS011;69115;49.904;14.390;2023-12-20T00:22:42;7.28;;;4.72;;
79640;SDS011;69115;49.904;14.390;2023-12-20T00:25:07;7.03;;;4.53;;
79640;SDS011;69115;49.904;14.390;2023-12-20T00:27:33;7.80;;;4.53;;
79640;SDS011;69115;49.904;14.390;2023-12-20T00:29:58;8.05;;;4.50;;
79640;SDS011;69115;49.904;14.390;2023-12-20T00:32:23;7.15;;;4.45;;
79640;SDS011;69115;49.904;14.390;2023-12-20T00:34:49;7.38;;;4.55;;
79640;SDS011;69115;49.904;14.390;2023-12-20T00:37:15;7.10;;;4.55;;
79640;SDS011;69115;49.904;14.390;2023-12-20T00:39:41;8.32;;;4.93;;
79640;SDS011;69115;49.904;14.390;2023-12-20T00:42:07;8.68;;;5.00;;
79640;SDS011;69115;49.904;14.390;2023-12-20T00:44:32;8.70;;;4.80;;
79640;SDS011;69115;49.904;14.390;2023-12-20T00:46:58;12.70;;;4.93;;
79640;SDS011;69115;49.904;14.390;2023-12-20T00:49:23;8.07;;;5.35;;
79640;SDS011;69115;49.904;14.390;2023-12-20T00:51:48;8.05;;;5.15;;
79640;SDS011;69115;49.904;14.390;2023-12-20T00:54:15;8.20;;;4.88;;
79640;SDS011;69115;49.904;14.390;2023-12-20T00:56:41;8.13;;;4.90;;
79640;SDS011;69115;49.904;14.390;2023-12-20T00:59:06;8.18;;;5.00;;
79640;SDS011;69115;49.904;14.390;2023-12-20T01:01:32;8.85;;;5.18;;
79640;SDS011;69115;49.904;14.390;2023-12-20T01:03:58;8.77;;;5.78;;
79640;SDS011;69115;49.904;14.390;2023-12-20T01:06:23;10.82;;;5.53;;
79640;SDS011;69115;49.904;14.390;2023-12-20T01:08:49;11.18;;;6.40;;
79640;SDS011;69115;49.904;14.390;2023-12-20T01:11:14;9.70;;;5.82;;
79640;SDS011;69115;49.904;14.390;2023-12-20T01:13:39;10.13;;;6.03;;
79640;SDS011;69115;49.904;14.390;2023-12-20T01:16:05;9.07;;;5.72;;
79640;SDS011;69115;49.904;14.390;2023-12-20T01:18:31;11.40;;;6.38;;
79640;SDS011;69115;49.904;14.390;2023-12-20T01:20:56;8.15;;;5.63;;
79640;SDS011;69115;49.904;14.390;2023-12-20T01:23:27;8.25;;;5.35;;
79640;SDS011;69115;49.904;14.390;2023-12-20T01:25:52;7.88;;;5.55;;
79640;SDS011;69115;49.904;14.390;2023-12-20T01:28:19;9.43;;;5.30;;
79640;SDS011;69115;49.904;14.390;2023-12-20T01:30:44;8.65;;;5.72;;
79640;SDS011;69115;49.904;14.390;2023-12-20T01:33:09;9.82;;;5.70;;
79640;SDS011;69115;49.904;14.390;2023-12-20T01:35:35;8.80;;;5.40;;
79640;SDS011;69115;49.904;14.390;2023-12-20T01:38:00;8.20;;;5.35;;
79640;SDS011;69115;49.904;14.390;2023-12-20T01:40:26;8.93;;;5.45;;
79640;SDS011;69115;49.904;14.390;2023-12-20T01:42:57;8.32;;;4.97;;
79640;SDS011;69115;49.904;14.390;2023-12-20T01:45:33;8.55;;;5.13;;
79640;SDS011;69115;49.904;14.390;2023-12-20T01:47:59;8.80;;;4.90;;
79640;SDS011;69115;49.904;14.390;2023-12-20T01:50:25;7.75;;;5.07;;
79640;SDS011;69115;49.904;14.390;2023-12-20T01:52:51;7.68;;;5.57;;
79640;SDS011;69115;49.904;14.390;2023-12-20T01:55:18;7.80;;;5.40;;
79640;SDS011;69115;49.904;14.390;2023-12-20T01:57:44;8.98;;;5.30;;
79640;SDS011;69115;49.904;14.390;2023-12-20T02:00:10;7.95;;;4.97;;
79640;SDS011;69115;49.904;14.390;2023-12-20T02:02:37;8.73;;;5.40;;
79640;SDS011;69115;49.904;14.390;2023-12-20T02:05:05;7.75;;;5.18;;
79640;SDS011;69115;49.904;14.390;2023-12-20T02:07:31;9.10;;;5.43;;
79640;SDS011;69115;49.904;14.390;2023-12-20T02:09:56;9.35;;;5.60;;
79640;SDS011;69115;49.904;14.390;2023-12-20T02:12:22;10.00;;;5.55;;
79640;SDS011;69115;49.904;14.390;2023-12-20T02:14:48;8.20;;;5.32;;
79640;SDS011;69115;49.904;14.390;2023-12-20T02:17:13;9.70;;;5.63;;
79640;SDS011;69115;49.904;14.390;2023-12-20T02:19:39;7.30;;;4.60;;
79640;SDS011;69115;49.904;14.390;2023-12-20T02:22:06;7.38;;;4.93;;
79640;SDS011;69115;49.904;14.390;2023-12-20T02:24:35;8.35;;;4.72;;
79640;SDS011;69115;49.904;14.390;2023-12-20T02:27:00;9.50;;;5.25;;
79640;SDS011;69115;49.904;14.390;2023-12-20T02:29:26;7.75;;;5.18;;
79640;SDS011;69115;49.904;14.390;2023-12-20T02:31:51;8.30;;;5.15;;
79640;SDS011;69115;49.904;14.390;2023-12-20T02:34:17;7.57;;;5.00;;
79640;SDS011;69115;49.904;14.390;2023-12-20T02:36:42;8.88;;;4.95;;
79640;SDS011;69115;49.904;14.390;2023-12-20T02:39:07;8.15;;;4.68;;
79640;SDS011;69115;49.904;14.390;2023-12-20T02:41:33;7.03;;;4.68;;
79640;SDS011;69115;49.904;14.390;2023-12-20T02:43:58;7.55;;;4.70;;
79640;SDS011;69115;49.904;14.390;2023-12-20T02:46:24;7.65;;;4.38;;
79640;SDS011;69115;49.904;14.390;2023-12-20T02:48:49;7.93;;;4.47;;
79640;SDS011;69115;49.904;14.390;2023-12-20T02:51:15;6.63;;;4.43;;
79640;SDS011;69115;49.904;14.390;2023-12-20T02:53:40;6.00;;;4.65;;
79640;SDS011;69115;49.904;14.390;2023-12-20T02:56:05;8.73;;;5.07;;
79640;SDS011;69115;49.904;14.390;2023-12-20T02:58:31;7.22;;;4.70;;
79640;SDS011;69115;49.904;14.390;2023-12-20T03:00:56;8.68;;;5.60;;
79640;SDS011;69115;49.904;14.390;2023-12-20T03:03:22;8.43;;;4.70;;
79640;SDS011;69115;49.904;14.390;2023-12-20T03:05:47;10.98;;;5.55;;
79640;SDS011;69115;49.904;14.390;2023-12-20T03:08:12;7.78;;;4.88;;
79640;SDS011;69115;49.904;14.390;2023-12-20T03:10:38;7.28;;;4.82;;
79640;SDS011;69115;49.904;14.390;2023-12-20T03:13:03;6.88;;;4.78;;
79640;SDS011;69115;49.904;14.390;2023-12-20T03:15:29;7.50;;;4.40;;
79640;SDS011;69115;49.904;14.390;2023-12-20T03:17:54;7.80;;;4.70;;
79640;SDS011;69115;49.904;14.390;2023-12-20T03:20:20;6.78;;;4.30;;
79640;SDS011;69115;49.904;14.390;2023-12-20T03:22:45;5.55;;;3.90;;
79640;SDS011;69115;49.904;14.390;2023-12-20T03:25:11;7.22;;;4.30;;
79640;SDS011;69115;49.904;14.390;2023-12-20T03:27:37;8.43;;;4.13;;
79640;SDS011;69115;49.904;14.390;2023-12-20T03:30:04;5.35;;;3.72;;
79640;SDS011;69115;49.904;14.390;2023-12-20T03:32:30;6.30;;;3.80;;
79640;SDS011;69115;49.904;14.390;2023-12-20T03:34:55;5.50;;;3.35;;
79640;SDS011;69115;49.904;14.390;2023-12-20T03:37:21;6.22;;;3.72;;
79640;SDS011;69115;49.904;14.390;2023-12-20T03:39:47;5.10;;;3.90;;
79640;SDS011;69115;49.904;14.390;2023-12-20T03:42:12;5.80;;;3.75;;
79640;SDS011;69115;49.904;14.390;2023-12-20T03:44:38;5.18;;;3.60;;
79640;SDS011;69115;49.904;14.390;2023-12-20T03:47:05;5.30;;;3.63;;
79640;SDS011;69115;49.904;14.390;2023-12-20T03:49:30;5.03;;;3.63;;
79640;SDS011;69115;49.904;14.390;2023-12-20T03:51:56;5.45;;;3.40;;
79640;SDS011;69115;49.904;14.390;2023-12-20T03:54:21;6.70;;;4.22;;
79640;SDS011;69115;49.904;14.390;2023-12-20T03:56:46;5.47;;;3.38;;
79640;SDS011;69115;49.904;14.390;2023-12-20T03:59:12;6.80;;;3.72;;
79640;SDS011;69115;49.904;14.390;2023-12-20T04:01:37;5.57;;;3.60;;
79640;SDS011;69115;49.904;14.390;2023-12-20T04:04:02;5.50;;;3.53;;
79640;SDS011;69115;49.904;14.390;2023-12-20T04:06:28;6.38;;;3.72;;
79640;SDS011;69115;49.904;14.390;2023-12-20T04:08:54;5.70;;;3.83;;
79640;SDS011;69115;49.904;14.390;2023-12-20T04:11:19;5.55;;;3.78;;
79640;SDS011;69115;49.904;14.390;2023-12-20T04:13:44;6.55;;;4.00;;
79640;SDS011;69115;49.904;14.390;2023-12-20T04:16:10;5.50;;;3.90;;
79640;SDS011;69115;49.904;14.390;2023-12-20T04:18:35;6.28;;;3.80;;
79640;SDS011;69115;49.904;14.390;2023-12-20T04:21:01;5.72;;;3.75;;
79640;SDS011;69115;49.904;14.390;2023-12-20T04:23:27;7.93;;;3.90;;
79640;SDS011;69115;49.904;14.390;2023-12-20T04:25:52;5.30;;;3.78;;
79640;SDS011;69115;49.904;14.390;2023-12-20T04:28:18;5.78;;;3.72;;
79640;SDS011;69115;49.904;14.390;2023-12-20T04:30:43;5.07;;;3.40;;
79640;SDS011;69115;49.904;14.390;2023-12-20T04:33:09;5.72;;;3.50;;
79640;SDS011;69115;49.904;14.390;2023-12-20T04:35:34;6.30;;;4.05;;
79640;SDS011;69115;49.904;14.390;2023-12-20T04:38:00;4.85;;;3.30;;
79640;SDS011;69115;49.904;14.390;2023-12-20T04:40:25;5.38;;;3.38;;
79640;SDS011;69115;49.904;14.390;2023-12-20T04:42:51;5.50;;;3.70;;
79640;SDS011;69115;49.904;14.390;2023-12-20T04:45:16;5.63;;;3.65;;
79640;SDS011;69115;49.904;14.390;2023-12-20T04:47:42;6.32;;;3.65;;
79640;SDS011;69115;49.904;14.390;2023-12-20T04:50:08;6.57;;;3.67;;
79640;SDS011;69115;49.904;14.390;2023-12-20T04:52:37;5.93;;;3.88;;
79640;SDS011;69115;49.904;14.390;2023-12-20T04:55:03;5.55;;;3.75;;
79640;SDS011;69115;49.904;14.390;2023-12-20T04:57:28;6.47;;;3.75;;
79640;SDS011;69115;49.904;14.390;2023-12-20T04:59:54;7.72;;;3.33;;
79640;SDS011;69115;49.904;14.390;2023-12-20T05:02:19;5.90;;;3.72;;
79640;SDS011;69115;49.904;14.390;2023-12-20T05:04:44;5.53;;;3.08;;
79640;SDS011;69115;49.904;14.390;2023-12-20T05:07:10;4.93;;;3.30;;
79640;SDS011;69115;49.904;14.390;2023-12-20T05:09:35;5.70;;;3.70;;
79640;SDS011;69115;49.904;14.390;2023-12-20T05:12:01;4.97;;;3.42;;
79640;SDS011;69115;49.904;14.390;2023-12-20T05:14:27;6.57;;;3.47;;
79640;SDS011;69115;49.904;14.390;2023-12-20T05:16:52;5.78;;;3.70;;
79640;SDS011;69115;49.904;14.390;2023-12-20T05:19:18;5.80;;;3.60;;
79640;SDS011;69115;49.904;14.390;2023-12-20T05:21:43;4.47;;;3.03;;
79640;SDS011;69115;49.904;14.390;2023-12-20T05:24:09;4.97;;;3.30;;
79640;SDS011;69115;49.904;14.390;2023-12-20T05:26:34;5.20;;;3.20;;
79640;SDS011;69115;49.904;14.390;2023-12-20T05:29:02;4.93;;;3.00;;
79640;SDS011;69115;49.904;14.390;2023-12-20T05:31:27;4.93;;;3.05;;
79640;SDS011;69115;49.904;14.390;2023-12-20T05:33:52;4.15;;;3.15;;
79640;SDS011;69115;49.904;14.390;2023-12-20T05:36:18;6.40;;;3.25;;
79640;SDS011;69115;49.904;14.390;2023-12-20T05:38:43;7.53;;;2.85;;
79640;SDS011;69115;49.904;14.390;2023-12-20T05:41:09;4.78;;;2.92;;
79640;SDS011;69115;49.904;14.390;2023-12-20T05:43:34;5.35;;;3.00;;
79640;SDS011;69115;49.904;14.390;2023-12-20T05:46:00;4.47;;;3.00;;
79640;SDS011;69115;49.904;14.390;2023-12-20T05:48:25;3.80;;;2.60;;
79640;SDS011;69115;49.904;14.390;2023-12-20T05:50:51;5.38;;;2.70;;
79640;SDS011;69115;49.904;14.390;2023-12-20T05:53:16;3.83;;;2.53;;
79640;SDS011;69115;49.904;14.390;2023-12-20T05:55:42;4.72;;;2.42;;
79640;SDS011;69115;49.904;14.390;2023-12-20T05:58:07;3.97;;;2.40;;
79640;SDS011;69115;49.904;14.390;2023-12-20T06:00:33;4.13;;;2.47;;
79640;SDS011;69115;49.904;14.390;2023-12-20T06:02:58;4.80;;;2.83;;
79640;SDS011;69115;49.904;14.390;2023-12-20T06:05:24;4.88;;;2.67;;
79640;SDS011;69115;49.904;14.390;2023-12-20T06:07:49;3.72;;;2.70;;
79640;SDS011;69115;49.904;14.390;2023-12-20T06:10:16;4.05;;;2.65;;
79640;SDS011;69115;49.904;14.390;2023-12-20T06:12:41;5.63;;;2.97;;
79640;SDS011;69115;49.904;14.390;2023-12-20T06:15:07;3.83;;;2.75;;
79640;SDS011;69115;49.904;14.390;2023-12-20T06:17:32;3.55;;;2.45;;
79640;SDS011;69115;49.904;14.390;2023-12-20T06:19:59;3.45;;;2.47;;
79640;SDS011;69115;49.904;14.390;2023-12-20T06:22:25;4.35;;;2.70;;
79640;SDS011;69115;49.904;14.390;2023-12-20T06:24:50;3.60;;;2.17;;
79640;SDS011;69115;49.904;14.390;2023-12-20T06:27:16;4.72;;;2.13;;
79640;SDS011;69115;49.904;14.390;2023-12-20T06:29:42;3.28;;;2.22;;
79640;SDS011;69115;49.904;14.390;2023-12-20T06:32:09;3.97;;;2.33;;
79640;SDS011;69115;49.904;14.390;2023-12-20T06:34:35;3.53;;;2.40;;
79640;SDS011;69115;49.904;14.390;2023-12-20T06:37:03;3.13;;;2.33;;
79640;SDS011;69115;49.904;14.390;2023-12-20T06:39:30;3.55;;;2.20;;
79640;SDS011;69115;49.904;14.390;2023-12-20T06:41:55;4.38;;;2.67;;
79640;SDS011;69115;49.904;14.390;2023-12-20T06:44:21;3.78;;;2.60;;
79640;SDS011;69115;49.904;14.390;2023-12-20T06:46:46;3.40;;;2.30;;
79640;SDS011;69115;49.904;14.390;2023-12-20T06:49:12;4.05;;;2.33;;
79640;SDS011;69115;49.904;14.390;2023-12-20T06:51:37;3.58;;;2.30;;
79640;SDS011;69115;49.904;14.390;2023-12-20T06:54:02;4.70;;;2.63;;
79640;SDS011;69115;49.904;14.390;2023-12-20T06:56:28;3.25;;;2.33;;
79640;SDS011;69115;49.904;14.390;2023-12-20T06:58:54;3.38;;;2.30;;
79640;SDS011;69115;49.904;14.390;2023-12-20T07:01:19;3.22;;;2.40;;
79640;SDS011;69115;49.904;14.390;2023-12-20T07:03:44;3.33;;;2.38;;
79640;SDS011;69115;49.904;14.390;2023-12-20T07:06:10;3.60;;;2.70;;
79640;SDS011;69115;49.904;14.390;2023-12-20T07:08:36;5.20;;;2.45;;
79640;SDS011;69115;49.904;14.390;2023-12-20T07:11:01;3.80;;;2.53;;
79640;SDS011;69115;49.904;14.390;2023-12-20T07:13:27;5.63;;;3.60;;
79640;SDS011;69115;49.904;14.390;2023-12-20T07:15:52;4.32;;;2.40;;
79640;SDS011;69115;49.904;14.390;2023-12-20T07:18:17;4.25;;;2.72;;
79640;SDS011;69115;49.904;14.390;2023-12-20T07:20:43;5.10;;;2.50;;
79640;SDS011;69115;49.904;14.390;2023-12-20T07:23:08;3.53;;;2.30;;
79640;SDS011;69115;49.904;14.390;2023-12-20T07:25:34;3.38;;;2.50;;
79640;SDS011;69115;49.904;14.390;2023-12-20T07:27:59;4.38;;;2.80;;
79640;SDS011;69115;49.904;14.390;2023-12-20T07:30:24;5.07;;;2.58;;
79640;SDS011;69115;49.904;14.390;2023-12-20T07:32:50;4.90;;;2.50;;
79640;SDS011;69115;49.904;14.390;2023-12-20T07:35:16;4.53;;;2.70;;
79640;SDS011;69115;49.904;14.390;2023-12-20T07:37:41;4.00;;;2.60;;
79640;SDS011;69115;49.904;14.390;2023-12-20T07:40:07;4.25;;;2.42;;
79640;SDS011;69115;49.904;14.390;2023-12-20T07:42:33;4.40;;;2.45;;
79640;SDS011;69115;49.904;14.390;2023-12-20T07:44:58;5.00;;;2.45;;
79640;SDS011;69115;49.904;14.390;2023-12-20T07:47:24;33.58;;;15.90;;
79640;SDS011;69115;49.904;14.390;2023-12-20T07:49:53;20.13;;;10.40;;
79640;SDS011;69115;49.904;14.390;2023-12-20T07:52:18;22.45;;;13.38;;
79640;SDS011;69115;49.904;14.390;2023-12-20T07:54:44;12.02;;;7.20;;
79640;SDS011;69115;49.904;14.390;2023-12-20T07:57:10;15.05;;;8.25;;
79640;SDS011;69115;49.904;14.390;2023-12-20T07:59:36;16.13;;;10.18;;
79640;SDS011;69115;49.904;14.390;2023-12-20T08:02:01;24.92;;;13.40;;
79640;SDS011;69115;49.904;14.390;2023-12-20T08:04:27;19.20;;;10.05;;
79640;SDS011;69115;49.904;14.390;2023-12-20T08:06:52;20.70;;;10.18;;
79640;SDS011;69115;49.904;14.390;2023-12-20T08:09:17;19.13;;;8.95;;
79640;SDS011;69115;49.904;14.390;2023-12-20T08:11:47;4.90;;;3.30;;
79640;SDS011;69115;49.904;14.390;2023-12-20T08:14:13;8.30;;;5.35;;
79640;SDS011;69115;49.904;14.390;2023-12-20T08:16:38;6.30;;;3.47;;
79640;SDS011;69115;49.904;14.390;2023-12-20T08:19:03;5.80;;;3.95;;
79640;SDS011;69115;49.904;14.390;2023-12-20T08:21:29;6.45;;;3.67;;
79640;SDS011;69115;49.904;14.390;2023-12-20T08:23:54;6.45;;;4.00;;
79640;SDS011;69115;49.904;14.390;2023-12-20T08:26:20;6.18;;;3.22;;
79640;SDS011;69115;49.904;14.390;2023-12-20T08:28:49;7.22;;;4.63;;
79640;SDS011;69115;49.904;14.390;2023-12-20T08:31:15;6.30;;;3.53;;
79640;SDS011;69115;49.904;14.390;2023-12-20T08:33:42;5.68;;;3.40;;
79640;SDS011;69115;49.904;14.390;2023-12-20T08:36:08;6.75;;;4.28;;
79640;SDS011;69115;49.904;14.390;2023-12-20T08:38:34;6.93;;;4.13;;
79640;SDS011;69115;49.904;14.390;2023-12-20T08:40:59;8.45;;;4.00;;
79640;SDS011;69115;49.904;14.390;2023-12-20T08:43:25;5.70;;;3.38;;
79640;SDS011;69115;49.904;14.390;2023-12-20T08:45:50;7.28;;;3.40;;
79640;SDS011;69115;49.904;14.390;2023-12-20T08:48:15;7.10;;;4.32;;
79640;SDS011;69115;49.904;14.390;2023-12-20T08:50:41;17.40;;;8.98;;
79640;SDS011;69115;49.904;14.390;2023-12-20T08:53:06;8.68;;;4.32;;
79640;SDS011;69115;49.904;14.390;2023-12-20T08:55:32;9.38;;;4.90;;
79640;SDS011;69115;49.904;14.390;2023-12-20T08:57:58;7.63;;;4.40;;
79640;SDS011;69115;49.904;14.390;2023-12-20T09:00:23;7.25;;;3.88;;
79640;SDS011;69115;49.904;14.390;2023-12-20T09:02:52;9.00;;;4.65;;
79640;SDS011;69115;49.904;14.390;2023-12-20T09:05:18;6.93;;;3.95;;
79640;SDS011;69115;49.904;14.390;2023-12-20T09:07:43;8.85;;;4.85;;
79640;SDS011;69115;49.904;14.390;2023-12-20T09:10:08;5.65;;;3.10;;
79640;SDS011;69115;49.904;14.390;2023-12-20T09:12:34;6.22;;;3.90;;
79640;SDS011;69115;49.904;14.390;2023-12-20T09:15:00;7.60;;;3.88;;
79640;SDS011;69115;49.904;14.390;2023-12-20T09:17:27;4.32;;;2.53;;
79640;SDS011;69115;49.904;14.390;2023-12-20T09:19:53;3.70;;;2.50;;
79640;SDS011;69115;49.904;14.390;2023-12-20T09:22:19;4.00;;;2.53;;
79640;SDS011;69115;49.904;14.390;2023-12-20T09:24:44;4.80;;;2.72;;
79640;SDS011;69115;49.904;14.390;2023-12-20T09:27:10;3.20;;;1.95;;
79640;SDS011;69115;49.904;14.390;2023-12-20T09:29:35;3.22;;;2.00;;
79640;SDS011;69115;49.904;14.390;2023-12-20T09:32:00;3.80;;;2.40;;
79640;SDS011;69115;49.904;14.390;2023-12-20T09:34:26;3.30;;;2.10;;
79640;SDS011;69115;49.904;14.390;2023-12-20T09:36:52;3.25;;;2.15;;
79640;SDS011;69115;49.904;14.390;2023-12-20T09:39:18;3.20;;;2.20;;
79640;SDS011;69115;49.904;14.390;2023-12-20T09:41:45;4.10;;;2.38;;
79640;SDS011;69115;49.904;14.390;2023-12-20T09:44:15;6.60;;;3.55;;
79640;SDS011;69115;49.904;14.390;2023-12-20T09:46:43;4.22;;;2.60;;
79640;SDS011;69115;49.904;14.390;2023-12-20T09:49:10;3.58;;;2.00;;
79640;SDS011;69115;49.904;14.390;2023-12-20T09:51:36;5.22;;;2.90;;
79640;SDS011;69115;49.904;14.390;2023-12-20T09:54:05;4.75;;;3.08;;
79640;SDS011;69115;49.904;14.390;2023-12-20T09:56:30;4.63;;;2.75;;
79640;SDS011;69115;49.904;14.390;2023-12-20T09:58:56;6.80;;;2.90;;
79640;SDS011;69115;49.904;14.390;2023-12-20T10:01:21;4.05;;;2.33;;
79640;SDS011;69115;49.904;14.390;2023-12-20T10:03:48;6.15;;;2.75;;
79640;SDS011;69115;49.904;14.390;2023-12-20T10:06:16;3.53;;;2.25;;
79640;SDS011;69115;49.904;14.390;2023-12-20T10:08:41;4.72;;;2.38;;
79640;SDS011;69115;49.904;14.390;2023-12-20T10:11:07;2.65;;;1.77;;
79640;SDS011;69115;49.904;14.390;2023-12-20T10:13:32;7.25;;;2.65;;
79640;SDS011;69115;49.904;14.390;2023-12-20T10:15:58;3.72;;;2.13;;
79640;SDS011;69115;49.904;14.390;2023-12-20T10:18:24;3.97;;;2.25;;
79640;SDS011;69115;49.904;14.390;2023-12-20T10:20:49;3.25;;;2.15;;
79640;SDS011;69115;49.904;14.390;2023-12-20T10:23:15;4.10;;;2.30;;
79640;SDS011;69115;49.904;14.390;2023-12-20T10:25:41;3.38;;;2.08;;
79640;SDS011;69115;49.904;14.390;2023-12-20T10:30:36;3.13;;;1.90;;
79640;SDS011;69115;49.904;14.390;2023-12-20T10:33:01;18.27;;;8.18;;
79640;SDS011;69115;49.904;14.390;2023-12-20T10:35:27;5.60;;;3.78;;
79640;SDS011;69115;49.904;14.390;2023-12-20T10:37:54;5.07;;;2.70;;
79640;SDS011;69115;49.904;14.390;2023-12-20T10:40:21;4.10;;;2.47;;
79640;SDS011;69115;49.904;14.390;2023-12-20T10:42:47;3.83;;;2.17;;
79640;SDS011;69115;49.904;14.390;2023-12-20T10:45:13;4.28;;;2.60;;
79640;SDS011;69115;49.904;14.390;2023-12-20T10:47:38;4.22;;;2.40;;
79640;SDS011;69115;49.904;14.390;2023-12-20T10:50:05;3.35;;;2.20;;
79640;SDS011;69115;49.904;14.390;2023-12-20T10:52:31;3.13;;;2.08;;
79640;SDS011;69115;49.904;14.390;2023-12-20T10:54:57;4.38;;;2.10;;
79640;SDS011;69115;49.904;14.390;2023-12-20T10:57:23;3.97;;;2.50;;
79640;SDS011;69115;49.904;14.390;2023-12-20T10:59:52;4.47;;;2.00;;
79640;SDS011;69115;49.904;14.390;2023-12-20T11:02:19;3.67;;;2.00;;
79640;SDS011;69115;49.904;14.390;2023-12-20T11:04:51;3.25;;;1.90;;
79640;SDS011;69115;49.904;14.390;2023-12-20T11:10:10;3.67;;;1.85;;
79640;SDS011;69115;49.904;14.390;2023-12-20T11:15:35;3.55;;;1.92;;
79640;SDS011;69115;49.904;14.390;2023-12-20T11:18:01;3.85;;;1.90;;
79640;SDS011;69115;49.904;14.390;2023-12-20T11:20:40;3.30;;;1.90;;
79640;SDS011;69115;49.904;14.390;2023-12-20T11:23:06;2.60;;;1.70;;
79640;SDS011;69115;49.904;14.390;2023-12-20T11:25:49;4.65;;;2.42;;
79640;SDS011;69115;49.904;14.390;2023-12-20T11:28:20;3.83;;;2.10;;
79640;SDS011;69115;49.904;14.390;2023-12-20T11:30:48;3.85;;;1.80;;
79640;SDS011;69115;49.904;14.390;2023-12-20T11:33:17;4.00;;;2.20;;
79640;SDS011;69115;49.904;14.390;2023-12-20T11:35:47;3.60;;;2.00;;
79640;SDS011;69115;49.904;14.390;2023-12-20T11:38:13;3.50;;;2.17;;
79640;SDS011;69115;49.904;14.390;2023-12-20T11:40:39;3.10;;;2.10;;
79640;SDS011;69115;49.904;14.390;2023-12-20T11:43:06;3.33;;;2.13;;
79640;SDS011;69115;49.904;14.390;2023-12-20T11:45:31;3.53;;;2.20;;
79640;SDS011;69115;49.904;14.390;2023-12-20T11:47:57;3.40;;;2.20;;
79640;SDS011;69115;49.904;14.390;2023-12-20T11:50:23;4.93;;;2.30;;
79640;SDS011;69115;49.904;14.390;2023-12-20T11:52:49;4.68;;;2.22;;
79640;SDS011;69115;49.904;14.390;2023-12-20T11:55:16;4.10;;;2.25;;
79640;SDS011;69115;49.904;14.390;2023-12-20T11:57:42;3.42;;;2.30;;
79640;SDS011;69115;49.904;14.390;2023-12-20T12:00:09;6.00;;;2.63;;
79640;SDS011;69115;49.904;14.390;2023-12-20T12:02:35;6.47;;;2.92;;
79640;SDS011;69115;49.904;14.390;2023-12-20T12:05:00;5.55;;;2.53;;
79640;SDS011;69115;49.904;14.390;2023-12-20T12:07:26;4.15;;;2.65;;
79640;SDS011;69115;49.904;14.390;2023-12-20T12:09:51;4.20;;;2.53;;
79640;SDS011;69115;49.904;14.390;2023-12-20T12:12:17;4.38;;;2.75;;
79640;SDS011;69115;49.904;14.390;2023-12-20T12:14:44;4.30;;;2.40;;
79640;SDS011;69115;49.904;14.390;2023-12-20T12:17:13;4.93;;;2.40;;
79640;SDS011;69115;49.904;14.390;2023-12-20T12:19:39;4.30;;;2.60;;
79640;SDS011;69115;49.904;14.390;2023-12-20T12:22:08;4.97;;;2.60;;
79640;SDS011;69115;49.904;14.390;2023-12-20T12:24:44;4.85;;;2.60;;
79640;SDS011;69115;49.904;14.390;2023-12-20T12:27:11;5.72;;;2.50;;
79640;SDS011;69115;49.904;14.390;2023-12-20T12:29:37;5.90;;;2.13;;
79640;SDS011;69115;49.904;14.390;2023-12-20T12:32:06;8.00;;;2.65;;
79640;SDS011;69115;49.904;14.390;2023-12-20T12:34:33;4.07;;;2.50;;
79640;SDS011;69115;49.904;14.390;2023-12-20T12:37:02;4.22;;;2.65;;
79640;SDS011;69115;49.904;14.390;2023-12-20T12:39:29;4.22;;;2.63;;
79640;SDS011;69115;49.904;14.390;2023-12-20T12:41:55;6.47;;;2.80;;
79640;SDS011;69115;49.904;14.390;2023-12-20T12:44:20;4.22;;;2.50;;
79640;SDS011;69115;49.904;14.390;2023-12-20T12:46:48;5.00;;;2.63;;
79640;SDS011;69115;49.904;14.390;2023-12-20T12:49:16;4.15;;;2.50;;
79640;SDS011;69115;49.904;14.390;2023-12-20T12:51:42;4.30;;;2.83;;
79640;SDS011;69115;49.904;14.390;2023-12-20T12:54:08;4.20;;;2.55;;
79640;SDS011;69115;49.904;14.390;2023-12-20T12:56:34;4.95;;;2.42;;
79640;SDS011;69115;49.904;14.390;2023-12-20T12:59:00;3.55;;;2.13;;
79640;SDS011;69115;49.904;14.390;2023-12-20T13:01:26;4.85;;;2.63;;
79640;SDS011;69115;49.904;14.390;2023-12-20T13:03:51;4.13;;;2.17;;
79640;SDS011;69115;49.904;14.390;2023-12-20T13:06:17;5.85;;;2.55;;
79640;SDS011;69115;49.904;14.390;2023-12-20T13:08:42;5.10;;;2.60;;
79640;SDS011;69115;49.904;14.390;2023-12-20T13:11:09;6.50;;;2.67;;
79640;SDS011;69115;49.904;14.390;2023-12-20T13:13:34;5.15;;;2.83;;
79640;SDS011;69115;49.904;14.390;2023-12-20T13:16:00;5.82;;;2.92;;
79640;SDS011;69115;49.904;14.390;2023-12-20T13:18:26;4.57;;;2.78;;
79640;SDS011;69115;49.904;14.390;2023-12-20T13:20:51;4.80;;;2.72;;
79640;SDS011;69115;49.904;14.390;2023-12-20T13:23:16;6.50;;;2.65;;
79640;SDS011;69115;49.904;14.390;2023-12-20T13:25:43;4.18;;;2.20;;
79640;SDS011;69115;49.904;14.390;2023-12-20T13:28:10;7.60;;;2.95;;
79640;SDS011;69115;49.904;14.390;2023-12-20T13:30:35;4.07;;;2.20;;
79640;SDS011;69115;49.904;14.390;2023-12-20T13:33:04;3.92;;;2.45;;
79640;SDS011;69115;49.904;14.390;2023-12-20T13:35:30;4.28;;;2.40;;
79640;SDS011;69115;49.904;14.390;2023-12-20T13:37:56;5.35;;;2.60;;
79640;SDS011;69115;49.904;14.390;2023-12-20T13:40:21;3.78;;;2.00;;
79640;SDS011;69115;49.904;14.390;2023-12-20T13:42:46;3.67;;;1.83;;
79640;SDS011;69115;49.904;14.390;2023-12-20T13:45:13;3.85;;;2.03;;
79640;SDS011;69115;49.904;14.390;2023-12-20T13:47:38;4.32;;;2.17;;
79640;SDS011;69115;49.904;14.390;2023-12-20T13:50:04;4.07;;;2.35;;
79640;SDS011;69115;49.904;14.390;2023-12-20T13:52:30;4.50;;;2.22;;
79640;SDS011;69115;49.904;14.390;2023-12-20T13:54:55;3.57;;;2.27;;
79640;SDS011;69115;49.904;14.390;2023-12-20T13:57:21;7.35;;;2.20;;
79640;SDS011;69115;49.904;14.390;2023-12-20T13:59:46;4.43;;;2.22;;
79640;SDS011;69115;49.904;14.390;2023-12-20T14:02:12;4.35;;;2.67;;
79640;SDS011;69115;49.904;14.390;2023-12-20T14:04:37;3.78;;;2.00;;
79640;SDS011;69115;49.904;14.390;2023-12-20T14:07:04;3.83;;;2.10;;
79640;SDS011;69115;49.904;14.390;2023-12-20T14:09:30;4.45;;;2.20;;
79640;SDS011;69115;49.904;14.390;2023-12-20T14:11:55;5.10;;;2.25;;
79640;SDS011;69115;49.904;14.390;2023-12-20T14:14:20;3.45;;;2.10;;
79640;SDS011;69115;49.904;14.390;2023-12-20T14:16:46;5.05;;;2.38;;
79640;SDS011;69115;49.904;14.390;2023-12-20T14:19:11;4.15;;;2.15;;
79640;SDS011;69115;49.904;14.390;2023-12-20T14:21:37;4.78;;;2.42;;
79640;SDS011;69115;49.904;14.390;2023-12-20T14:24:03;6.15;;;2.40;;
79640;SDS011;69115;49.904;14.390;2023-12-20T14:26:30;4.15;;;2.20;;
79640;SDS011;69115;49.904;14.390;2023-12-20T14:28:56;5.68;;;2.10;;
79640;SDS011;69115;49.904;14.390;2023-12-20T14:31:25;3.75;;;2.00;;
79640;SDS011;69115;49.904;14.390;2023-12-20T14:33:52;3.38;;;2.10;;